createdAt,value
2019-05-15T00:00:19.535Z,10.50
2019-05-15T00:05:32.959Z,10.40
2019-05-15T00:10:39.980Z,10.40
2019-05-15T00:15:48.000Z,10.30
2019-05-15T00:20:52.584Z,10.20
2019-05-15T00:25:58.761Z,10.10
2019-05-15T00:31:09.090Z,10.10
2019-05-15T00:36:15.019Z,10.00
2019-05-15T00:41:19.748Z,9.90
2019-05-15T00:46:28.894Z,9.90
2019-05-15T00:51:30.609Z,9.80
2019-05-15T00:56:35.112Z,9.70
2019-05-15T01:01:40.327Z,9.70
2019-05-15T01:06:50.872Z,9.60
2019-05-15T01:11:58.721Z,9.50
2019-05-15T01:17:08.845Z,9.50
2019-05-15T01:22:14.033Z,9.40
2019-05-15T01:27:19.271Z,9.30
2019-05-15T01:32:25.300Z,9.30
2019-05-15T01:37:29.880Z,9.20
2019-05-15T01:42:34.428Z,9.10
2019-05-15T01:47:39.212Z,9.10
2019-05-15T01:52:43.864Z,9.00
2019-05-15T01:57:49.104Z,8.90
2019-05-15T02:02:53.763Z,8.90
2019-05-15T02:07:59.752Z,8.80
2019-05-15T02:13:04.291Z,8.80
2019-05-15T02:18:08.810Z,8.80
2019-05-15T02:23:13.402Z,8.80
2019-05-15T02:28:19.796Z,8.80
2019-05-15T02:33:25.953Z,8.70
2019-05-15T02:38:33.841Z,8.60
2019-05-15T02:43:39.265Z,8.60
2019-05-15T02:48:48.671Z,8.50
2019-05-15T02:53:51.895Z,8.50
2019-05-15T02:58:59.877Z,8.40
2019-05-15T03:04:09.045Z,8.40
2019-05-15T03:09:12.174Z,8.40
2019-05-15T03:14:23.676Z,8.30
2019-05-15T03:19:29.889Z,8.30
2019-05-15T03:24:34.784Z,8.30
2019-05-15T03:29:53.825Z,8.30
2019-05-15T03:35:04.917Z,8.30
2019-05-15T03:40:10.843Z,8.20
2019-05-15T03:45:14.856Z,8.20
2019-05-15T03:50:19.679Z,8.20
2019-05-15T03:55:29.511Z,8.20
2019-05-15T04:00:49.554Z,8.20
2019-05-15T04:05:50.713Z,8.20
2019-05-15T04:10:59.426Z,8.20
2019-05-15T04:16:02.784Z,8.20
2019-05-15T04:21:09.577Z,8.10
2019-05-15T04:26:14.908Z,8.00
2019-05-15T04:31:19.647Z,8.00
2019-05-15T04:36:24.778Z,8.00
2019-05-15T04:41:33.086Z,8.00
2019-05-15T04:46:39.361Z,8.00
2019-05-15T04:51:43.937Z,8.10
2019-05-15T04:56:49.046Z,8.10
2019-05-15T05:02:13.018Z,8.20
2019-05-15T05:07:00.315Z,8.20
2019-05-15T05:12:04.899Z,8.30
2019-05-15T05:17:09.625Z,8.40
2019-05-15T05:22:14.241Z,8.50
2019-05-15T05:27:18.637Z,8.50
2019-05-15T05:32:34.284Z,8.60
2019-05-15T05:37:29.297Z,8.70
2019-05-15T05:42:33.954Z,8.80
2019-05-15T05:47:38.574Z,8.90
2019-05-15T05:52:43.157Z,9.10
2019-05-15T05:57:48.698Z,9.20
2019-05-15T06:02:53.304Z,9.40
2019-05-15T06:07:58.218Z,9.60
2019-05-15T06:13:02.810Z,9.70
2019-05-15T06:18:08.306Z,9.80
2019-05-15T06:23:12.903Z,9.90
2019-05-15T06:28:19.521Z,10.00
2019-05-15T06:33:23.456Z,10.20
2019-05-15T06:38:30.863Z,10.20
2019-05-15T06:43:58.722Z,10.40
2019-05-15T06:49:02.644Z,10.60
2019-05-15T06:54:08.763Z,10.80
2019-05-15T06:59:13.340Z,11.00
2019-05-15T07:04:18.160Z,11.10
2019-05-15T07:09:22.927Z,11.20
2019-05-15T07:14:28.835Z,11.30
2019-05-15T07:19:33.391Z,11.40
2019-05-15T07:24:39.417Z,11.60
2019-05-15T07:29:43.813Z,11.70
2019-05-15T07:34:48.444Z,11.90
2019-05-15T07:39:52.913Z,12.10
2019-05-15T07:44:58.864Z,12.40
2019-05-15T07:50:08.836Z,12.70
2019-05-15T07:55:13.846Z,12.90
2019-05-15T08:00:20.073Z,13.00
2019-05-15T08:05:24.666Z,13.30
2019-05-15T08:10:29.180Z,13.50
2019-05-15T08:15:33.746Z,13.60
2019-05-15T08:20:38.589Z,13.80
2019-05-15T08:25:43.118Z,13.80
2019-05-15T08:30:49.323Z,13.90
2019-05-15T08:35:55.139Z,14.20
2019-05-15T08:40:59.540Z,14.50
2019-05-15T08:46:03.954Z,14.60
2019-05-15T08:51:08.884Z,14.40
2019-05-15T08:56:14.824Z,14.40
2019-05-15T09:01:19.428Z,14.50
2019-05-15T09:06:23.823Z,14.50
2019-05-15T09:11:28.452Z,14.80
2019-05-15T09:16:32.908Z,14.90
2019-05-15T09:21:38.811Z,15.00
2019-05-15T09:26:43.414Z,15.00
2019-05-15T09:31:48.399Z,15.20
2019-05-15T09:36:54.513Z,15.30
2019-05-15T09:41:59.238Z,15.60
2019-05-15T09:47:09.170Z,15.70
2019-05-15T09:52:13.718Z,15.40
2019-05-15T09:57:18.759Z,15.60
2019-05-15T10:02:23.365Z,15.80
2019-05-15T10:07:28.592Z,16.00
2019-05-15T10:12:35.131Z,15.90
2019-05-15T10:17:39.323Z,16.00
2019-05-15T10:22:44.125Z,16.40
2019-05-15T10:27:48.948Z,16.40
2019-05-15T10:32:53.485Z,16.40
2019-05-15T10:37:59.226Z,16.70
2019-05-15T10:43:03.931Z,17.30
2019-05-15T10:48:09.398Z,17.60
2019-05-15T10:53:14.675Z,17.70
2019-05-15T10:58:22.184Z,17.70
2019-05-15T11:03:25.248Z,17.90
2019-05-15T11:08:29.649Z,18.20
2019-05-15T11:13:34.212Z,18.00
2019-05-15T11:18:53.528Z,18.30
2019-05-15T11:23:59.110Z,18.90
2019-05-15T11:29:03.666Z,19.40
2019-05-15T11:34:09.381Z,19.00
2019-05-15T11:39:13.975Z,19.60
2019-05-15T11:44:18.848Z,19.40
2019-05-15T11:49:23.269Z,19.10
2019-05-15T11:54:28.296Z,19.20
2019-05-15T11:59:32.839Z,19.30
2019-05-15T12:04:38.449Z,19.60
2019-05-15T12:09:42.963Z,19.70
2019-05-15T12:14:49.406Z,19.90
2019-05-15T12:19:56.772Z,20.00
2019-05-15T12:25:00.455Z,20.30
2019-05-15T12:30:13.659Z,20.30
2019-05-15T12:35:20.396Z,20.60
2019-05-15T13:00:53.699Z,21.00
2019-05-15T13:05:58.124Z,20.80
2019-05-15T13:11:02.692Z,20.70
2019-05-15T13:16:07.175Z,21.00
2019-05-15T13:21:11.659Z,21.00
2019-05-15T13:26:23.680Z,21.30
2019-05-15T13:31:22.173Z,21.60
2019-05-15T13:36:28.850Z,21.10
2019-05-15T13:41:32.797Z,20.70
2019-05-15T13:46:38.825Z,20.70
2019-05-15T13:51:45.062Z,20.90
2019-05-15T13:56:49.563Z,20.90
2019-05-15T14:01:54.018Z,21.00
2019-05-15T14:06:58.389Z,21.20
2019-05-15T14:12:02.780Z,21.60
2019-05-15T14:17:09.278Z,22.20
2019-05-15T14:22:13.348Z,22.40
2019-05-15T14:27:19.520Z,22.70
2019-05-15T14:32:35.531Z,22.40
2019-05-15T14:37:30.015Z,22.50
2019-05-15T14:42:34.409Z,22.10
2019-05-15T14:47:39.820Z,22.30
2019-05-15T14:52:44.227Z,22.50
2019-05-15T14:57:48.997Z,21.90
2019-05-15T15:02:53.648Z,21.90
2019-05-15T15:07:58.657Z,22.00
2019-05-15T15:13:03.299Z,21.80
2019-05-15T15:18:08.412Z,21.80
2019-05-15T15:23:13.067Z,21.10
2019-05-15T15:28:18.891Z,21.00
2019-05-15T15:33:23.577Z,21.00
2019-05-15T15:38:40.248Z,20.50
2019-05-15T15:43:34.313Z,20.70
2019-05-15T15:48:39.209Z,20.60
2019-05-15T15:53:43.822Z,20.40
2019-05-15T15:58:48.748Z,20.80
2019-05-15T16:03:53.699Z,21.00
2019-05-15T16:08:59.542Z,21.00
2019-05-15T16:14:04.601Z,20.60
2019-05-15T16:19:09.079Z,20.20
2019-05-15T16:24:17.680Z,19.90
2019-05-15T16:29:19.884Z,19.70
2019-05-15T16:34:24.354Z,19.50
2019-05-15T16:39:28.831Z,19.20
2019-05-15T16:44:33.289Z,19.00
2019-05-15T16:49:39.087Z,19.00
2019-05-15T16:54:43.777Z,18.80
2019-05-15T16:59:48.226Z,18.60
2019-05-15T17:04:52.860Z,18.30
2019-05-15T17:09:58.578Z,18.20
2019-05-15T17:15:03.395Z,18.10
2019-05-15T17:20:11.333Z,17.90
2019-05-15T17:25:18.157Z,17.90
2019-05-15T17:30:25.362Z,17.80
2019-05-15T17:35:29.765Z,17.80
2019-05-15T17:40:34.297Z,17.90
2019-05-15T17:45:39.264Z,17.80
2019-05-15T17:50:49.012Z,17.50
2019-05-15T17:55:49.879Z,17.40
2019-05-15T18:00:54.358Z,17.40
2019-05-15T18:05:59.399Z,17.50
2019-05-15T18:11:03.907Z,17.60
2019-05-15T18:16:13.390Z,17.50
2019-05-15T18:21:14.555Z,17.30
2019-05-15T18:26:19.193Z,17.20
2019-05-15T18:31:23.698Z,17.00
2019-05-15T18:36:28.498Z,16.90
2019-05-15T18:41:34.755Z,16.80
2019-05-15T18:46:39.218Z,16.60
2019-05-15T18:51:43.916Z,16.50
2019-05-15T18:56:48.969Z,16.50
2019-05-15T19:01:53.816Z,16.40
2019-05-15T19:06:58.408Z,16.20
2019-05-15T19:12:02.911Z,16.10
2019-05-15T19:17:08.213Z,16.10
2019-05-15T19:22:12.806Z,16.00
2019-05-15T19:27:18.752Z,15.90
2019-05-15T19:32:23.492Z,15.90
2019-05-15T19:37:28.759Z,15.70
2019-05-15T19:42:59.106Z,15.60
2019-05-15T19:48:26.439Z,15.50
2019-05-15T19:53:36.869Z,15.30
2019-05-15T19:58:53.025Z,15.30
2019-05-15T20:04:08.782Z,15.20
2019-05-15T20:09:14.390Z,15.00
2019-05-15T20:14:30.666Z,14.90
2019-05-15T20:19:39.427Z,14.80
2019-05-15T20:25:10.144Z,14.70
2019-05-15T20:30:19.666Z,14.70
2019-05-15T20:35:28.391Z,14.60
2019-05-15T20:40:35.966Z,14.50
2019-05-15T20:50:59.184Z,14.40
2019-05-15T20:56:05.303Z,14.30
2019-05-15T21:01:10.765Z,14.20
2019-05-15T21:06:17.741Z,14.10
2019-05-15T21:11:22.746Z,14.00
2019-05-15T21:16:28.046Z,14.00
2019-05-15T21:21:35.750Z,13.90
2019-05-15T21:26:42.170Z,13.90
2019-05-15T21:31:49.678Z,13.80
2019-05-15T21:36:59.076Z,13.80
2019-05-15T21:42:08.850Z,13.80
2019-05-15T21:47:22.944Z,13.80
2019-05-15T21:52:39.200Z,13.70
2019-05-15T21:57:45.164Z,13.70
2019-05-15T22:02:50.004Z,13.60
2019-05-15T22:07:58.487Z,13.50
2019-05-15T22:13:05.235Z,13.40
2019-05-15T22:18:11.491Z,13.30
2019-05-15T22:23:19.622Z,13.10
2019-05-15T22:28:28.217Z,13.00
2019-05-15T22:33:32.384Z,12.90
2019-05-15T22:38:38.464Z,12.90
2019-05-15T22:43:43.134Z,12.70
2019-05-15T22:48:50.538Z,12.70
2019-05-15T22:53:55.500Z,12.60
2019-05-15T22:59:01.234Z,12.40
2019-05-15T23:04:05.846Z,12.30
2019-05-15T23:09:13.899Z,12.10
2019-05-15T23:14:18.688Z,12.00
2019-05-15T23:19:23.203Z,11.90
2019-05-15T23:24:28.234Z,11.80
2019-05-15T23:29:32.958Z,11.60
2019-05-15T23:34:38.818Z,11.50
2019-05-15T23:39:48.561Z,11.50
2019-05-15T23:44:53.540Z,11.40
2019-05-15T23:49:58.150Z,11.30
2019-05-15T23:55:08.616Z,11.10
